ADDS METAR Data INFO
IDs: Format: Raw Decoded Include TAF

Data at: 1246 UTC 19 Oct 2017

KPPF 191152Z AUTO 00000KT 10SM CLR 10/08 A3014 RMK AO2 SLP204 60000 T01000078 10117 20083 53008
KPPF 191052Z AUTO 16003KT 10SM CLR 12/08 A3014 RMK AO2 SLP201 T01170078
KPPF 190952Z AUTO 17003KT 10SM CLR 12/08 A3012 RMK AO2 SLP194 T01170083
KPPF 190852Z AUTO 16003KT 10SM CLR 11/08 A3012 RMK AO2 SLP193 60000 T01110083 51006
KPPF 190752Z AUTO 00000KT 10SM CLR 09/08 A3012 RMK AO2 RAB0659E10 SLP194 P0000 T00890078
KPPF 190652Z AUTO 15003KT 10SM CLR 10/08 A3010 RMK AO2 SLP190 T01000083
KPPF 190552Z AUTO 00000KT 10SM CLR 11/09 A3010 RMK AO2 SLP188 T01110089 10189 20106 402500100 53006
KPPF 190452Z AUTO 17003KT 10SM CLR 13/09 A3009 RMK AO2 SLP184 T01330089
KPPF 190352Z AUTO 18003KT 10SM CLR 13/09 A3009 RMK AO2 SLP184 T01330089
KPPF 190252Z AUTO 00000KT 10SM CLR 15/09 A3008 RMK AO2 SLP182 T01500089 51010
KPPF 190152Z AUTO 17004KT 10SM CLR 16/09 A3007 RMK AO2 SLP180 T01610094
KPPF 190052Z AUTO VRB03KT 10SM CLR 16/10 A3007 RMK AO2 SLP180 T01560100
KPPF 182352Z AUTO 17003KT 10SM CLR 19/10 A3005 RMK AO2 SLP173 60000 T01890100 10250 20189 53005
KPPF 182252Z AUTO 18006KT 10SM CLR 22/10 A3004 RMK AO2 RAE2154 SLP168 P0000 T02170100
KPPF 182152Z AUTO 17010G15KT 10SM -RA CLR 24/10 A3004 RMK AO2 RAB45 SLP166 P0000 T02390100
KPPF 182052Z AUTO 17007G17KT 10SM CLR 24/11 A3004 RMK AO2 SLP166 60000 T02440106 56013
KPPF 181952Z AUTO 18012G18KT 10SM CLR 24/09 A3004 RMK AO2 SLP168 T02390094
KPPF 181852Z AUTO 19015G20KT 10SM CLR 23/09 A3004 RMK AO2 RAE03 SLP168 P0000 T02330089
KPPF 181752Z AUTO 19016G22KT 10SM -RA CLR 21/08 A3007 RMK AO2 RAB49 SLP180 P0000 60000 T02110083 10217 20100 58014
KPPF 181652Z AUTO 19014G25KT 10SM CLR 21/07 A3010 RMK AO2 SLP188 T02060072
KPPF 181552Z AUTO 19013G19KT 10SM CLR 18/08 A3011 RMK AO2 SLP191 T01830078
KPPF 181452Z AUTO 18012G19KT 10SM CLR 16/07 A3012 RMK AO2 SLP195 T01560072 52005
KPPF 181352Z AUTO 17006G15KT 10SM CLR 13/06 A3012 RMK AO2 SLP196 T01280061
KPPF 181252Z AUTO 16006KT 10SM CLR 11/06 A3010 RMK AO2 SLP192 T01060061
KPPF 181152Z AUTO 16006KT 10SM CLR 11/06 A3010 RMK AO2 SLP191 T01060061 10117 20106 58001
KPPF 181052Z AUTO 17004KT 10SM CLR 11/07 A3010 RMK AO2 SLP190 T01060067
KPPF 180952Z AUTO 17003KT 10SM CLR 11/07 A3010 RMK AO2 SLP190 T01060067
KPPF 180852Z AUTO 16003KT 10SM CLR 11/07 A3010 RMK AO2 SLP190 T01060067 57012
KPPF 180752Z AUTO 16004KT 10SM CLR 11/07 A3012 RMK AO2 SLP194 T01110072
KPPF 180652Z AUTO 17005KT 10SM CLR 12/07 A3013 RMK AO2 SLP198 T01170072
KPPF 180552Z AUTO 17003KT 10SM CLR 11/07 A3014 RMK AO2 SLP202 T01110072 10172 20106 402170056 58002
KPPF 180452Z AUTO 00000KT 10SM CLR 12/07 A3015 RMK AO2 SLP206 T01170072
KPPF 180352Z AUTO 16003KT 10SM CLR 13/07 A3015 RMK AO2 SLP207 T01280072
KPPF 180252Z AUTO 16004KT 10SM CLR 14/07 A3015 RMK AO2 SLP206 T01390072 53006
KPPF 180152Z AUTO 16005KT 10SM CLR 14/08 A3014 RMK AO2 SLP204 T01440078
KPPF 180052Z AUTO 15003KT 10SM CLR 15/08 A3013 RMK AO2 SLP203 T01500078